Terminal Aerodrome Forecast
Issued by NWS

Home | Current Version | Previous Version | Text Only | Print | Product List | Glossary On
Versions: 1 2 3 4 5 6 7 8 9 10 11 12 13
000
FTUS45 KVEF 282300
TAFHND
TAF
KHND 282333Z 0100/0124 22021G30KT P6SM FEW070
     FM010300 22015G22KT P6SM FEW070
     FM011000 20009KT P6SM SCT070 BKN100
     FM011500 21006KT P6SM BKN070=

USA.gov is the U.S. government's official web portal to all federal, state and local government web resources and services.